Time;durP1;ratioP1;P1;durP2;ratioP2;P2;SDS_P1;SDS_P2;PMS_P1;PMS_P2;Temp;Humidity;BMP_temperature;BMP_pressure;BME280_temperature;BME280_humidity;BME280_pressure;Samples;Min_cycle;Max_cycle;Signal;HPM_P1;HPM_P2
2022/04/26 03:36:11;;;;;;;94.97;25.40;;;;;;;;;;5033188;28;20258;-74
2022/04/26 03:38:41;;;;;;;108.20;24.93;;;;;;;;;;5039101;28;20229;-73
2022/04/26 03:41:10;;;;;;;112.27;25.63;;;;;;;;;;5036363;28;20660;-73
2022/04/26 03:43:38;;;;;;;46.90;24.03;;;;;;;;;;5038854;28;20270;-75
2022/04/26 03:46:07;;;;;;;41.33;21.77;;;;;;;;;;5032158;28;20210;-74
2022/04/26 03:48:35;;;;;;;89.40;24.90;;;;;;;;;;5038748;28;20219;-74
2022/04/26 03:51:05;;;;;;;70.27;24.17;;;;;;;;;;5043159;28;20204;-74
2022/04/26 03:53:34;;;;;;;136.37;26.60;;;;;;;;;;5032518;28;20709;-73
2022/04/26 03:56:03;;;;;;;34.00;22.27;;;;;;;;;;5032423;28;20207;-74
2022/04/26 03:58:31;;;;;;;78.67;24.10;;;;;;;;;;5033381;28;20223;-73
2022/04/26 04:01:00;;;;;;;59.77;23.67;;;;;;;;;;5032383;28;20211;-73
2022/04/26 04:03:32;;;;;;;28.03;21.63;;;;;;;;;;5042228;28;20195;-74
2022/04/26 04:06:00;;;;;;;28.83;22.60;;;;;;;;;;5046617;28;20207;-74
2022/04/26 04:08:30;;;;;;;25.77;22.73;;;;;;;;;;5039052;28;20714;-74
2022/04/26 04:10:58;;;;;;;29.50;21.80;;;;;;;;;;5045137;28;20569;-74
2022/04/26 04:13:27;;;;;;;26.07;21.77;;;;;;;;;;5032964;28;20319;-74
2022/04/26 04:15:56;;;;;;;32.83;21.90;;;;;;;;;;5034900;28;20841;-73
2022/04/26 04:21:11;;;;;;;26.07;20.87;;;;;;;;;;5053002;28;20211;-74
2022/04/26 04:23:41;;;;;;;32.27;20.83;;;;;;;;;;5040891;28;20619;-74
2022/04/26 04:26:09;;;;;;;29.73;20.70;;;;;;;;;;5047118;28;20261;-74
2022/04/26 04:28:38;;;;;;;25.93;21.23;;;;;;;;;;5045434;28;20226;-73
2022/04/26 04:31:08;;;;;;;22.80;20.43;;;;;;;;;;5037335;28;20655;-73
2022/04/26 04:33:36;;;;;;;21.97;19.67;;;;;;;;;;5043410;28;20639;-74
2022/04/26 04:36:05;;;;;;;22.50;20.17;;;;;;;;;;5036959;28;20211;-74
2022/04/26 04:38:34;;;;;;;21.50;19.30;;;;;;;;;;5042548;28;20223;-73
2022/04/26 04:41:04;;;;;;;40.93;21.97;;;;;;;;;;5044210;28;20432;-73
2022/04/26 04:43:33;;;;;;;36.67;20.73;;;;;;;;;;5048142;28;20208;-74
2022/04/26 04:46:01;;;;;;;35.97;21.10;;;;;;;;;;5044723;28;20218;-74
2022/04/26 04:48:30;;;;;;;46.17;21.13;;;;;;;;;;5048674;28;20223;-73
2022/04/26 04:50:58;;;;;;;33.97;21.60;;;;;;;;;;5036260;28;20215;-73
2022/04/26 04:53:27;;;;;;;23.17;20.73;;;;;;;;;;5043651;28;20853;-74
2022/04/26 04:55:55;;;;;;;37.43;21.83;;;;;;;;;;5050381;28;20213;-73
2022/04/26 04:58:26;;;;;;;53.93;23.90;;;;;;;;;;5046249;28;20768;-74
2022/04/26 05:00:54;;;;;;;36.63;22.93;;;;;;;;;;5034061;28;20596;-74
2022/04/26 05:03:23;;;;;;;45.07;24.37;;;;;;;;;;5041071;28;20195;-73
2022/04/26 05:05:51;;;;;;;30.53;23.67;;;;;;;;;;5044396;28;20200;-73
2022/04/26 05:08:19;;;;;;;109.83;27.67;;;;;;;;;;5041190;28;20230;-74
2022/04/26 05:10:48;;;;;;;46.23;23.60;;;;;;;;;;5038507;28;20277;-73
2022/04/26 05:13:16;;;;;;;64.93;24.70;;;;;;;;;;5043736;28;20306;-74
2022/04/26 05:15:46;;;;;;;42.20;23.83;;;;;;;;;;5036869;28;20230;-74
2022/04/26 05:18:15;;;;;;;28.13;23.77;;;;;;;;;;5039737;28;20245;-75
2022/04/26 05:20:44;;;;;;;37.93;22.93;;;;;;;;;;5036174;28;20215;-74
2022/04/26 05:25:58;;;;;;;42.73;24.70;;;;;;;;;;5048494;28;20708;-74
2022/04/26 05:28:27;;;;;;;61.07;25.37;;;;;;;;;;5047762;28;20231;-74
2022/04/26 05:30:57;;;;;;;37.30;26.47;;;;;;;;;;5034345;28;20196;-75
2022/04/26 05:33:27;;;;;;;38.97;24.50;;;;;;;;;;5041874;28;20231;-74
2022/04/26 05:35:55;;;;;;;48.63;24.83;;;;;;;;;;5042668;28;20269;-74
2022/04/26 05:38:24;;;;;;;72.67;24.80;;;;;;;;;;5038655;28;20265;-74
2022/04/26 05:40:53;;;;;;;85.53;26.53;;;;;;;;;;5054301;28;20594;-74
2022/04/26 05:43:22;;;;;;;130.43;25.97;;;;;;;;;;5041973;28;20215;-73
2022/04/26 05:45:50;;;;;;;67.03;25.03;;;;;;;;;;5041855;28;20218;-74
2022/04/26 05:48:20;;;;;;;63.43;24.23;;;;;;;;;;5046684;28;20581;-74
2022/04/26 05:50:48;;;;;;;109.60;26.90;;;;;;;;;;5034554;28;20258;-74
2022/04/26 05:53:17;;;;;;;45.53;23.23;;;;;;;;;;5035098;28;20247;-73
2022/04/26 05:55:45;;;;;;;88.77;25.37;;;;;;;;;;5043206;28;20206;-73
2022/04/26 05:58:14;;;;;;;60.90;25.83;;;;;;;;;;5039289;28;20278;-75
2022/04/26 06:00:42;;;;;;;76.67;26.33;;;;;;;;;;5034021;28;20208;-74
2022/04/26 06:03:10;;;;;;;49.70;25.10;;;;;;;;;;5036857;28;20204;-75
2022/04/26 06:05:41;;;;;;;94.03;25.27;;;;;;;;;;5053968;28;20207;-75
2022/04/26 06:08:10;;;;;;;59.87;25.57;;;;;;;;;;5046373;28;20216;-75
2022/04/26 06:10:39;;;;;;;66.90;25.90;;;;;;;;;;5044236;28;20345;-74
2022/04/26 06:13:08;;;;;;;39.57;26.53;;;;;;;;;;5046963;28;20228;-74
2022/04/26 06:15:37;;;;;;;48.20;23.67;;;;;;;;;;5045412;28;20261;-74
2022/04/26 06:18:05;;;;;;;48.27;24.40;;;;;;;;;;5091516;22;20566;-74
2022/04/26 06:20:34;;;;;;;102.50;25.67;;;;;;;;;;5052614;28;20211;-74
2022/04/26 06:23:04;;;;;;;72.43;25.17;;;;;;;;;;5053409;28;20249;-74
2022/04/26 06:25:36;;;;;;;51.30;23.63;;;;;;;;;;5052988;28;20257;-73
2022/04/26 06:28:05;;;;;;;64.70;23.77;;;;;;;;;;5039722;28;20270;-73
2022/04/26 06:30:36;;;;;;;127.90;30.30;;;;;;;;;;5032372;28;20218;-74
2022/04/26 06:33:05;;;;;;;58.67;27.57;;;;;;;;;;5022671;28;20204;-73
2022/04/26 06:35:33;;;;;;;81.90;30.43;;;;;;;;;;5033280;28;20199;-73
2022/04/26 06:38:01;;;;;;;49.10;27.80;;;;;;;;;;5033014;28;20290;-72
2022/04/26 06:40:31;;;;;;;71.93;26.93;;;;;;;;;;5032043;28;20220;-73
2022/04/26 06:43:00;;;;;;;71.93;29.23;;;;;;;;;;5032591;28;20204;-73
2022/04/26 06:45:28;;;;;;;63.23;25.53;;;;;;;;;;5033273;28;20281;-73
2022/04/26 06:47:56;;;;;;;93.87;26.93;;;;;;;;;;5033461;28;20631;-74
2022/04/26 06:50:25;;;;;;;127.47;29.37;;;;;;;;;;5031855;28;20265;-73
2022/04/26 06:52:53;;;;;;;96.80;28.27;;;;;;;;;;5032827;28;20235;-74
2022/04/26 06:55:22;;;;;;;65.27;26.20;;;;;;;;;;5032832;28;20224;-74
2022/04/26 06:57:51;;;;;;;142.90;29.00;;;;;;;;;;5033279;28;20231;-73
2022/04/26 07:00:20;;;;;;;64.97;25.63;;;;;;;;;;5032935;28;20211;-74
2022/04/26 07:02:48;;;;;;;115.23;29.23;;;;;;;;;;5033064;28;20207;-72
2022/04/26 07:05:24;;;;;;;75.70;28.53;;;;;;;;;;5013580;28;20267;-73
2022/04/26 07:07:55;;;;;;;42.83;28.77;;;;;;;;;;5013079;28;20228;-74
2022/04/26 07:10:24;;;;;;;55.13;27.90;;;;;;;;;;5029934;28;20603;-74
2022/04/26 07:12:54;;;;;;;70.13;28.30;;;;;;;;;;5033380;28;20234;-74
2022/04/26 07:15:22;;;;;;;47.10;30.33;;;;;;;;;;5033066;28;20696;-74
2022/04/26 07:17:51;;;;;;;62.20;36.97;;;;;;;;;;5032640;28;20629;-74
2022/04/26 07:20:20;;;;;;;74.37;39.97;;;;;;;;;;5032057;28;20204;-74
2022/04/26 07:22:49;;;;;;;55.77;38.80;;;;;;;;;;5029089;28;20616;-74
2022/04/26 07:25:18;;;;;;;57.70;36.63;;;;;;;;;;5013009;28;20660;-74
2022/04/26 07:27:46;;;;;;;58.47;36.07;;;;;;;;;;5013223;28;20232;-74
2022/04/26 07:30:16;;;;;;;41.83;31.63;;;;;;;;;;5013232;28;20259;-74
2022/04/26 07:35:30;;;;;;;41.93;30.10;;;;;;;;;;5013498;28;20220;-72
2022/04/26 07:38:05;;;;;;;30.53;26.33;;;;;;;;;;5013804;28;20233;-75
2022/04/26 07:40:33;;;;;;;33.50;25.37;;;;;;;;;;5012877;28;20208;-74
2022/04/26 07:43:03;;;;;;;31.10;23.97;;;;;;;;;;5012965;28;20683;-73
2022/04/26 07:45:39;;;;;;;28.03;25.03;;;;;;;;;;5020965;28;20265;-74
2022/04/26 07:48:08;;;;;;;29.93;24.73;;;;;;;;;;5032448;28;20242;-72
2022/04/26 07:50:37;;;;;;;29.50;23.77;;;;;;;;;;5032735;28;20265;-73
2022/04/26 07:53:06;;;;;;;26.03;23.23;;;;;;;;;;5027848;28;20219;-74
2022/04/26 07:55:34;;;;;;;26.47;23.67;;;;;;;;;;5016435;28;20699;-74
2022/04/26 07:58:03;;;;;;;23.10;20.70;;;;;;;;;;5016388;28;20224;-73
2022/04/26 08:00:32;;;;;;;19.47;17.57;;;;;;;;;;5030682;28;20212;-74
2022/04/26 08:03:03;;;;;;;19.07;17.03;;;;;;;;;;5036196;28;20266;-74
2022/04/26 08:05:31;;;;;;;19.23;17.33;;;;;;;;;;5036020;28;20564;-73
2022/04/26 08:08:00;;;;;;;17.63;15.87;;;;;;;;;;5036184;28;20228;-74
2022/04/26 08:10:28;;;;;;;16.33;14.83;;;;;;;;;;5036070;28;20670;-74
2022/04/26 08:12:56;;;;;;;16.93;15.33;;;;;;;;;;5035266;28;20204;-73
2022/04/26 08:15:25;;;;;;;17.37;15.57;;;;;;;;;;5036163;28;20227;-73
2022/04/26 08:17:53;;;;;;;17.37;15.40;;;;;;;;;;5035731;28;20251;-74
2022/04/26 08:20:24;;;;;;;16.57;14.93;;;;;;;;;;5035941;28;20713;-74
2022/04/26 08:22:54;;;;;;;16.80;15.20;;;;;;;;;;5031571;28;20702;-73
2022/04/26 08:28:08;;;;;;;16.63;14.93;;;;;;;;;;5035870;28;20228;-74
2022/04/26 08:30:37;;;;;;;16.43;14.83;;;;;;;;;;5035709;28;20211;-73
2022/04/26 08:33:05;;;;;;;15.97;14.47;;;;;;;;;;5035666;28;20286;-73
2022/04/26 08:35:35;;;;;;;16.77;15.13;;;;;;;;;;5035457;28;20277;-75
2022/04/26 08:38:24;;;;;;;16.83;15.17;;;;;;;;;;5035712;28;20277;-74
2022/04/26 08:40:52;;;;;;;16.23;14.67;;;;;;;;;;5035856;28;20208;-73
2022/04/26 08:43:21;;;;;;;15.63;14.13;;;;;;;;;;5035081;28;20203;-73
2022/04/26 08:45:49;;;;;;;16.17;14.60;;;;;;;;;;5035150;28;20269;-73
2022/04/26 08:51:07;;;;;;;14.17;12.83;;;;;;;;;;5035688;28;20199;-73
2022/04/26 08:53:38;;;;;;;14.47;13.17;;;;;;;;;;5025612;28;20696;-74
2022/04/26 08:56:07;;;;;;;13.93;12.60;;;;;;;;;;5031024;28;20315;-75
2022/04/26 08:58:36;;;;;;;14.20;12.80;;;;;;;;;;5035486;28;20232;-75
2022/04/26 09:01:09;;;;;;;13.87;12.67;;;;;;;;;;5035298;28;20192;-74
2022/04/26 09:03:38;;;;;;;12.83;11.63;;;;;;;;;;5035259;28;20215;-73
2022/04/26 09:06:13;;;;;;;13.00;11.70;;;;;;;;;;5034862;28;20200;-73
2022/04/26 09:08:42;;;;;;;12.60;11.40;;;;;;;;;;5034327;28;20257;-74
2022/04/26 09:11:26;;;;;;;12.80;11.60;;;;;;;;;;5034809;28;20206;-74
2022/04/26 09:13:55;;;;;;;12.57;11.48;;;;;;;;;;5035030;28;20191;-73
2022/04/26 09:16:24;;;;;;;12.40;11.15;;;;;;;;;;5035056;28;20223;-74
2022/04/26 09:18:53;;;;;;;11.48;10.45;;;;;;;;;;5034610;28;20223;-75
2022/04/26 09:21:27;;;;;;;11.10;10.15;;;;;;;;;;5034813;28;20302;-74
2022/04/26 09:24:00;;;;;;;11.45;10.43;;;;;;;;;;5034027;28;20404;-73
2022/04/26 09:26:33;;;;;;;10.82;9.82;;;;;;;;;;5034861;28;20607;-72
2022/04/26 09:29:02;;;;;;;11.32;10.15;;;;;;;;;;5035032;28;20192;-73
2022/04/26 09:31:31;;;;;;;10.25;9.35;;;;;;;;;;5033866;28;20270;-73
2022/04/26 09:34:05;;;;;;;11.55;10.40;;;;;;;;;;5034171;28;20659;-73
2022/04/26 09:36:43;;;;;;;11.63;10.52;;;;;;;;;;5034078;28;20235;-74
2022/04/26 09:39:12;;;;;;;10.77;9.73;;;;;;;;;;5035016;28;20192;-72
2022/04/26 09:41:49;;;;;;;10.52;9.52;;;;;;;;;;5034578;28;20557;-73
2022/04/26 09:44:31;;;;;;;10.65;9.40;;;;;;;;;;5034314;28;20666;-74
2022/04/26 09:46:59;;;;;;;9.82;8.73;;;;;;;;;;5033127;28;20219;-73
2022/04/26 09:49:28;;;;;;;9.73;8.73;;;;;;;;;;5033729;28;20200;-73
2022/04/26 09:51:59;;;;;;;9.35;8.45;;;;;;;;;;5034468;28;20235;-73
2022/04/26 09:54:29;;;;;;;9.13;8.32;;;;;;;;;;5034099;28;20203;-74
2022/04/26 09:56:58;;;;;;;9.07;8.18;;;;;;;;;;5034004;28;20901;-74
2022/04/26 09:59:28;;;;;;;8.15;7.32;;;;;;;;;;5034205;28;20208;-75
2022/04/26 10:01:58;;;;;;;8.27;7.47;;;;;;;;;;5034007;28;20215;-74
2022/04/26 10:04:29;;;;;;;8.70;7.90;;;;;;;;;;5033120;28;20210;-74
2022/04/26 10:07:01;;;;;;;8.20;7.50;;;;;;;;;;5034096;28;20247;-74
2022/04/26 10:09:30;;;;;;;8.65;7.82;;;;;;;;;;5034416;28;20195;-75
2022/04/26 10:11:59;;;;;;;8.20;7.40;;;;;;;;;;5034241;28;20214;-73
2022/04/26 10:14:29;;;;;;;8.60;7.50;;;;;;;;;;5033853;28;20215;-74
2022/04/26 10:16:57;;;;;;;8.65;7.85;;;;;;;;;;5033269;28;20281;-74
2022/04/26 10:19:37;;;;;;;8.63;7.43;;;;;;;;;;5033587;28;20333;-72
2022/04/26 10:22:08;;;;;;;8.63;7.72;;;;;;;;;;5033668;28;20566;-74
2022/04/26 10:24:38;;;;;;;8.57;7.47;;;;;;;;;;5015537;28;20212;-74
2022/04/26 10:27:20;;;;;;;8.68;7.45;;;;;;;;;;5030820;28;20236;-75
2022/04/26 10:29:49;;;;;;;8.88;7.68;;;;;;;;;;5033859;28;20254;-74
2022/04/26 10:32:30;;;;;;;10.05;7.32;;;;;;;;;;5032708;28;20207;-75
2022/04/26 10:35:14;;;;;;;8.40;7.50;;;;;;;;;;5033414;28;20211;-73
2022/04/26 10:37:44;;;;;;;8.80;6.88;;;;;;;;;;5032926;28;20220;-74
2022/04/26 10:40:13;;;;;;;8.70;7.40;;;;;;;;;;5033924;28;20203;-74
2022/04/26 10:42:41;;;;;;;7.88;7.07;;;;;;;;;;5033501;28;20210;-75
2022/04/26 10:45:10;;;;;;;9.02;6.85;;;;;;;;;;5033257;28;20231;-73
2022/04/26 10:47:39;;;;;;;7.90;6.72;;;;;;;;;;5031840;28;20330;-75
2022/04/26 10:50:09;;;;;;;8.65;6.85;;;;;;;;;;5033174;28;20208;-74
2022/04/26 10:52:43;;;;;;;10.00;6.47;;;;;;;;;;5033257;28;20207;-75
2022/04/26 10:55:17;;;;;;;6.93;6.22;;;;;;;;;;5032843;28;20662;-74
2022/04/26 10:57:52;;;;;;;9.25;6.70;;;;;;;;;;5033512;28;20591;-75
2022/04/26 11:00:27;;;;;;;8.20;6.47;;;;;;;;;;5033070;28;20204;-75
2022/04/26 11:03:00;;;;;;;8.10;6.53;;;;;;;;;;5033432;28;20203;-74
2022/04/26 11:05:32;;;;;;;7.03;6.43;;;;;;;;;;5032910;28;20203;-75
2022/04/26 11:08:00;;;;;;;7.28;6.57;;;;;;;;;;5033289;28;20220;-75
2022/04/26 11:11:00;;;;;;;7.05;6.13;;;;;;;;;;5033255;28;20551;-74
2022/04/26 11:13:37;;;;;;;8.00;5.83;;;;;;;;;;4685545;28;9999798;-73
2022/04/26 11:16:09;;;;;;;6.90;5.90;;;;;;;;;;5035099;28;20537;-75
2022/04/26 11:18:42;;;;;;;7.68;6.88;;;;;;;;;;5030478;28;20317;-74
2022/04/26 11:21:14;;;;;;;7.82;6.63;;;;;;;;;;5031170;28;20228;-74
2022/04/26 11:29:22;;;;;;;7.85;6.45;;;;;;;;;;5021223;28;20608;-73
2022/04/26 11:31:51;;;;;;;7.10;6.40;;;;;;;;;;5035068;28;20207;-74
2022/04/26 11:34:19;;;;;;;6.63;6.03;;;;;;;;;;5034689;28;20577;-75
2022/04/26 11:36:50;;;;;;;8.30;6.78;;;;;;;;;;5034661;28;20228;-76
2022/04/26 11:39:18;;;;;;;7.20;6.50;;;;;;;;;;5037047;28;20566;-74
2022/04/26 11:41:48;;;;;;;10.48;6.68;;;;;;;;;;5036328;28;20889;-74
2022/04/26 11:44:16;;;;;;;7.50;6.78;;;;;;;;;;5033440;28;20200;-73
2022/04/26 11:46:59;;;;;;;6.97;6.22;;;;;;;;;;5034517;28;20990;-75
2022/04/26 11:49:39;;;;;;;7.07;6.47;;;;;;;;;;5036164;28;20212;-75
2022/04/26 11:52:08;;;;;;;8.27;6.70;;;;;;;;;;5037274;28;20212;-74
2022/04/26 11:54:37;;;;;;;7.55;6.72;;;;;;;;;;5036370;28;20204;-73
2022/04/26 11:57:07;;;;;;;7.47;6.75;;;;;;;;;;5036696;28;20239;-73
2022/04/26 11:59:36;;;;;;;7.70;6.95;;;;;;;;;;5036429;28;20233;-75
2022/04/26 12:02:07;;;;;;;8.77;6.68;;;;;;;;;;5036805;28;20207;-73
2022/04/26 12:04:36;;;;;;;6.90;6.20;;;;;;;;;;5036567;28;20287;-74
2022/04/26 12:07:04;;;;;;;8.60;7.15;;;;;;;;;;5036377;28;20254;-74
2022/04/26 12:09:33;;;;;;;7.90;6.68;;;;;;;;;;5034815;28;20212;-73
2022/04/26 12:12:04;;;;;;;7.32;6.68;;;;;;;;;;5020343;28;20619;-74
2022/04/26 12:14:37;;;;;;;7.93;6.60;;;;;;;;;;5035881;28;20215;-73
2022/04/26 12:17:17;;;;;;;7.63;6.38;;;;;;;;;;5034877;28;20227;-74
2022/04/26 12:19:50;;;;;;;6.55;5.95;;;;;;;;;;5036102;28;20207;-74
2022/04/26 12:22:19;;;;;;;6.22;5.68;;;;;;;;;;5035086;28;20214;-74
2022/04/26 12:24:48;;;;;;;6.82;6.10;;;;;;;;;;5034926;28;20204;-74
2022/04/26 12:27:19;;;;;;;6.93;5.30;;;;;;;;;;5031998;28;20220;-74
2022/04/26 12:29:50;;;;;;;5.55;5.05;;;;;;;;;;5033701;28;20207;-73
2022/04/26 12:32:28;;;;;;;6.13;5.57;;;;;;;;;;5032982;28;20211;-73
2022/04/26 12:35:02;;;;;;;5.25;4.75;;;;;;;;;;5033819;28;20212;-74
2022/04/26 12:37:31;;;;;;;6.53;5.85;;;;;;;;;;5035581;28;20227;-74
2022/04/26 12:40:00;;;;;;;8.43;6.22;;;;;;;;;;5034726;28;20207;-73
2022/04/26 12:42:34;;;;;;;6.47;5.88;;;;;;;;;;5034816;28;20647;-74
2022/04/26 12:45:05;;;;;;;6.85;5.70;;;;;;;;;;5035617;28;20658;-74
2022/04/26 12:50:30;;;;;;;6.80;6.20;;;;;;;;;;5035800;28;20199;-74
2022/04/26 12:52:59;;;;;;;7.28;6.43;;;;;;;;;;5034916;28;20234;-74
2022/04/26 12:55:29;;;;;;;7.38;6.68;;;;;;;;;;5034059;28;20212;-74
2022/04/26 12:57:59;;;;;;;7.07;6.40;;;;;;;;;;5023760;28;20232;-72
2022/04/26 13:00:29;;;;;;;7.88;7.07;;;;;;;;;;5035173;28;20199;-73
2022/04/26 13:02:58;;;;;;;8.18;7.00;;;;;;;;;;5034732;28;20647;-74
2022/04/26 13:05:39;;;;;;;10.13;7.15;;;;;;;;;;5030967;28;20214;-74
2022/04/26 13:08:07;;;;;;;7.40;6.70;;;;;;;;;;5032753;28;20735;-74
2022/04/26 13:10:35;;;;;;;8.23;7.43;;;;;;;;;;5033594;28;20207;-74
2022/04/26 13:13:05;;;;;;;8.18;7.13;;;;;;;;;;5017203;28;20319;-73
2022/04/26 13:15:35;;;;;;;8.13;7.15;;;;;;;;;;5030787;28;20283;-74
2022/04/26 13:18:03;;;;;;;7.22;6.53;;;;;;;;;;5033653;28;20701;-73
2022/04/26 13:20:33;;;;;;;7.93;7.18;;;;;;;;;;5034119;28;20212;-73
2022/04/26 13:23:01;;;;;;;10.38;7.00;;;;;;;;;;5034752;28;20212;-73
2022/04/26 13:25:30;;;;;;;9.07;6.82;;;;;;;;;;5035282;28;20207;-73
2022/04/26 13:27:59;;;;;;;7.90;6.45;;;;;;;;;;5034578;28;20277;-73
2022/04/26 13:30:27;;;;;;;7.15;6.43;;;;;;;;;;5017520;28;20201;-73
2022/04/26 13:32:57;;;;;;;7.60;6.32;;;;;;;;;;5018214;28;20200;-73
2022/04/26 13:35:26;;;;;;;8.30;5.93;;;;;;;;;;5037293;28;20272;-73
2022/04/26 13:37:55;;;;;;;7.18;6.35;;;;;;;;;;5034261;28;20741;-74
2022/04/26 13:40:23;;;;;;;7.30;6.60;;;;;;;;;;5032447;28;20210;-74
2022/04/26 13:42:57;;;;;;;8.43;6.20;;;;;;;;;;5029752;28;20238;-74
2022/04/26 13:45:26;;;;;;;7.10;6.50;;;;;;;;;;5032401;28;20214;-74
2022/04/26 13:47:54;;;;;;;7.18;6.47;;;;;;;;;;5034453;28;20227;-73
2022/04/26 13:50:24;;;;;;;7.20;6.30;;;;;;;;;;5033593;28;20265;-74
2022/04/26 13:52:53;;;;;;;8.20;6.35;;;;;;;;;;5033475;28;20207;-73
2022/04/26 13:55:21;;;;;;;9.77;6.47;;;;;;;;;;5031518;28;20196;-74
2022/04/26 13:57:50;;;;;;;6.82;6.22;;;;;;;;;;5031679;28;20234;-74
2022/04/26 14:00:18;;;;;;;7.32;6.53;;;;;;;;;;5033291;28;20212;-73
2022/04/26 14:02:48;;;;;;;7.40;6.70;;;;;;;;;;5027381;28;20255;-74
2022/04/26 14:05:17;;;;;;;8.40;6.82;;;;;;;;;;5029895;28;20299;-71
2022/04/26 14:07:47;;;;;;;6.72;6.10;;;;;;;;;;5032904;28;20254;-73
2022/04/26 14:10:16;;;;;;;7.28;6.68;;;;;;;;;;5033085;28;20207;-73
2022/04/26 14:12:44;;;;;;;6.65;5.95;;;;;;;;;;5027424;28;20269;-74
2022/04/26 14:23:35;;;;;;;7.55;6.25;;;;;;;;;;5033281;28;20207;-73
2022/04/26 14:26:03;;;;;;;7.57;6.50;;;;;;;;;;5033414;28;20208;-74
2022/04/26 14:28:32;;;;;;;7.68;6.05;;;;;;;;;;5032748;28;20691;-73
2022/04/26 14:31:00;;;;;;;7.07;6.20;;;;;;;;;;5029434;28;20207;-74
2022/04/26 14:33:29;;;;;;;8.05;6.30;;;;;;;;;;5031531;28;20208;-73
2022/04/26 14:35:57;;;;;;;6.78;6.07;;;;;;;;;;5031602;28;20196;-73
2022/04/26 14:38:27;;;;;;;6.80;6.15;;;;;;;;;;5030625;28;20598;-74
2022/04/26 14:40:57;;;;;;;7.22;6.53;;;;;;;;;;5032566;28;20207;-73
2022/04/26 14:43:25;;;;;;;8.43;6.70;;;;;;;;;;4678028;28;10000050;-74
2022/04/26 14:45:55;;;;;;;7.53;6.75;;;;;;;;;;5023626;28;20215;-74
2022/04/26 14:48:24;;;;;;;7.22;6.50;;;;;;;;;;5030697;28;20306;-73
2022/04/26 14:50:55;;;;;;;7.95;6.80;;;;;;;;;;5031179;28;20199;-73
2022/04/26 14:53:24;;;;;;;12.27;7.20;;;;;;;;;;5030711;28;20283;-73
2022/04/26 14:56:10;;;;;;;7.80;6.35;;;;;;;;;;5030422;28;20261;-74
2022/04/26 14:59:02;;;;;;;7.60;5.85;;;;;;;;;;5030168;28;20246;-74
2022/04/26 15:01:36;;;;;;;9.60;6.85;;;;;;;;;;5029825;28;20768;-73
2022/04/26 15:04:05;;;;;;;8.95;7.22;;;;;;;;;;5028961;28;20200;-73
2022/04/26 15:06:34;;;;;;;7.85;7.05;;;;;;;;;;5023979;28;20210;-73
2022/04/26 15:16:37;;;;;;;7.75;7.13;;;;;;;;;;5030844;28;20203;-73
2022/04/26 15:17:24;;;;;;;9.07;7.30;;;;;;;;;;5030602;28;20247;-73
2022/04/26 15:19:52;;;;;;;8.32;7.53;;;;;;;;;;5029393;28;20281;-73
2022/04/26 15:22:22;;;;;;;10.38;7.45;;;;;;;;;;5031619;28;20215;-74
2022/04/26 15:24:51;;;;;;;7.80;7.00;;;;;;;;;;5033070;28;20207;-73
2022/04/26 15:27:20;;;;;;;7.70;6.90;;;;;;;;;;5030294;28;20348;-73
2022/04/26 15:29:49;;;;;;;7.95;7.15;;;;;;;;;;5013828;28;20201;-73
2022/04/26 15:32:19;;;;;;;7.18;6.35;;;;;;;;;;5032090;28;20211;-72
2022/04/26 15:34:48;;;;;;;7.97;7.22;;;;;;;;;;5032854;28;20207;-72
2022/04/26 15:37:16;;;;;;;7.32;6.50;;;;;;;;;;5031601;28;20220;-73
2022/04/26 15:39:47;;;;;;;7.20;6.00;;;;;;;;;;5033206;28;20223;-73
2022/04/26 15:42:17;;;;;;;5.28;4.80;;;;;;;;;;5032403;28;20206;-73
2022/04/26 15:44:47;;;;;;;6.95;5.57;;;;;;;;;;5031080;28;20261;-73
2022/04/26 15:47:16;;;;;;;8.00;5.30;;;;;;;;;;5026628;28;20231;-73
2022/04/26 15:49:45;;;;;;;6.60;5.30;;;;;;;;;;5026174;28;20719;-73
2022/04/26 15:52:14;;;;;;;6.80;5.57;;;;;;;;;;5031749;28;20200;-73
2022/04/26 15:54:43;;;;;;;5.70;5.20;;;;;;;;;;5030273;28;20211;-73
2022/04/26 15:57:12;;;;;;;6.40;5.70;;;;;;;;;;5030611;28;20302;-73
2022/04/26 15:59:41;;;;;;;7.00;5.50;;;;;;;;;;5027993;28;20242;-73
2022/04/26 16:02:11;;;;;;;5.90;5.30;;;;;;;;;;5027746;28;20199;-73
2022/04/26 16:04:40;;;;;;;6.23;5.33;;;;;;;;;;5031954;28;20207;-73
2022/04/26 16:07:08;;;;;;;6.03;5.17;;;;;;;;;;5030172;28;20299;-73
2022/04/26 16:20:51;;;;;;;5.27;4.80;;;;;;;;;;5033812;28;20675;-73
2022/04/26 16:23:19;;;;;;;5.67;5.17;;;;;;;;;;5032335;28;20216;-73
2022/04/26 16:25:48;;;;;;;5.43;4.93;;;;;;;;;;5031594;28;20211;-73
2022/04/26 16:28:17;;;;;;;5.57;5.07;;;;;;;;;;5028249;28;20224;-74
2022/04/26 16:30:49;;;;;;;5.87;4.70;;;;;;;;;;5015533;28;20240;-72
2022/04/26 16:33:24;;;;;;;5.10;4.70;;;;;;;;;;5028630;28;20208;-71
2022/04/26 16:36:11;;;;;;;5.77;5.17;;;;;;;;;;5024420;28;20204;-74
2022/04/26 16:38:40;;;;;;;4.70;4.30;;;;;;;;;;5029110;28;20258;-72
2022/04/26 16:41:09;;;;;;;5.03;4.47;;;;;;;;;;5027850;28;20200;-71
2022/04/26 16:43:39;;;;;;;6.87;5.00;;;;;;;;;;5027182;28;20295;-72
2022/04/26 16:46:08;;;;;;;5.07;4.57;;;;;;;;;;5036556;28;20230;-71
2022/04/26 16:48:38;;;;;;;5.17;4.63;;;;;;;;;;5023873;28;20216;-74
2022/04/26 16:51:07;;;;;;;7.30;5.23;;;;;;;;;;5026848;28;20203;-73
2022/04/26 16:53:38;;;;;;;5.73;4.87;;;;;;;;;;5028723;28;20200;-74
2022/04/26 16:56:07;;;;;;;6.20;5.13;;;;;;;;;;5030264;28;20208;-74
2022/04/26 16:58:35;;;;;;;6.10;4.50;;;;;;;;;;5029122;28;20224;-74
2022/04/26 17:01:04;;;;;;;6.60;4.87;;;;;;;;;;5031873;28;20287;-74
2022/04/26 17:03:33;;;;;;;5.63;5.00;;;;;;;;;;5032743;28;20211;-74
2022/04/26 17:06:04;;;;;;;9.60;5.03;;;;;;;;;;4681290;28;9999634;-74
2022/04/26 17:08:32;;;;;;;6.00;5.40;;;;;;;;;;5030848;28;20231;-73
2022/04/26 17:13:45;;;;;;;5.77;5.13;;;;;;;;;;5027623;28;20203;-74
2022/04/26 17:16:14;;;;;;;5.93;5.33;;;;;;;;;;5029069;28;20326;-73
2022/04/26 17:18:43;;;;;;;5.43;4.90;;;;;;;;;;5027802;28;20242;-73
2022/04/26 17:21:12;;;;;;;5.30;4.90;;;;;;;;;;5024956;28;20192;-72
2022/04/26 17:23:41;;;;;;;7.00;6.30;;;;;;;;;;5025249;28;20285;-73
2022/04/26 17:26:10;;;;;;;9.37;7.67;;;;;;;;;;5027126;28;20204;-73
2022/04/26 17:28:38;;;;;;;13.73;10.97;;;;;;;;;;5028317;28;20230;-73
2022/04/26 17:31:07;;;;;;;11.50;9.97;;;;;;;;;;5022991;28;20270;-73
2022/04/26 17:33:37;;;;;;;11.90;10.70;;;;;;;;;;5027781;28;20231;-73
2022/04/26 17:36:06;;;;;;;14.20;11.00;;;;;;;;;;5026088;28;20208;-73
2022/04/26 17:38:36;;;;;;;11.63;10.40;;;;;;;;;;5024967;28;20227;-73
2022/04/26 17:41:05;;;;;;;11.60;10.10;;;;;;;;;;5027443;28;20215;-73
2022/04/26 17:43:35;;;;;;;12.17;10.40;;;;;;;;;;5027742;28;20552;-72
2022/04/26 17:46:09;;;;;;;13.13;10.60;;;;;;;;;;5024809;28;20208;-73
2022/04/26 17:48:38;;;;;;;11.47;10.07;;;;;;;;;;5025824;28;20234;-74
2022/04/26 17:51:06;;;;;;;12.83;10.60;;;;;;;;;;5024729;28;20207;-73
2022/04/26 17:56:33;;;;;;;11.43;10.07;;;;;;;;;;5027451;28;20204;-73
2022/04/26 17:59:01;;;;;;;15.20;10.20;;;;;;;;;;5024078;28;20243;-73
2022/04/26 18:01:35;;;;;;;10.60;9.60;;;;;;;;;;5023728;28;20211;-73
2022/04/26 18:04:04;;;;;;;12.80;10.07;;;;;;;;;;5024707;28;20208;-73
2022/04/26 18:06:32;;;;;;;12.17;10.87;;;;;;;;;;5025561;28;20286;-73
2022/04/26 18:09:02;;;;;;;12.13;9.87;;;;;;;;;;5025999;28;20663;-73
2022/04/26 18:11:31;;;;;;;10.80;9.80;;;;;;;;;;5020363;28;20444;-73
2022/04/26 18:13:59;;;;;;;10.63;9.63;;;;;;;;;;5026471;28;20251;-73
2022/04/26 18:16:28;;;;;;;11.43;9.87;;;;;;;;;;5023692;28;20219;-72
2022/04/26 18:19:03;;;;;;;10.73;9.23;;;;;;;;;;5026607;28;20211;-74
2022/04/26 18:21:32;;;;;;;11.83;8.80;;;;;;;;;;5018931;28;20596;-74
2022/04/26 18:24:02;;;;;;;10.63;9.40;;;;;;;;;;5031708;28;20212;-73
2022/04/26 18:26:32;;;;;;;13.27;9.57;;;;;;;;;;5021206;28;20754;-73
2022/04/26 18:29:01;;;;;;;9.83;8.83;;;;;;;;;;5021242;28;20215;-74
2022/04/26 18:31:31;;;;;;;14.17;9.27;;;;;;;;;;5025027;28;20211;-73
2022/04/26 18:34:01;;;;;;;10.77;8.93;;;;;;;;;;5025176;28;20241;-73
2022/04/26 18:36:31;;;;;;;11.20;8.83;;;;;;;;;;5031229;28;20204;-72
2022/04/26 18:38:59;;;;;;;9.23;8.40;;;;;;;;;;5019292;28;20217;-73
2022/04/26 18:41:29;;;;;;;9.50;8.50;;;;;;;;;;5027878;28;20235;-73
2022/04/26 18:43:59;;;;;;;9.30;8.33;;;;;;;;;;5024448;28;20247;-73
2022/04/26 18:46:27;;;;;;;12.00;8.90;;;;;;;;;;5025217;28;20226;-74
2022/04/26 18:48:56;;;;;;;9.40;8.40;;;;;;;;;;5021885;28;20270;-73
2022/04/26 18:51:26;;;;;;;10.67;8.67;;;;;;;;;;5018370;28;20199;-73
2022/04/26 18:53:55;;;;;;;9.30;8.40;;;;;;;;;;5026524;28;20242;-73
2022/04/26 18:56:24;;;;;;;11.63;8.13;;;;;;;;;;5026732;28;20219;-72
2022/04/26 18:58:55;;;;;;;10.23;8.53;;;;;;;;;;5026916;28;20223;-73
2022/04/26 19:01:28;;;;;;;10.10;8.73;;;;;;;;;;5027486;28;20261;-73
2022/04/26 19:03:58;;;;;;;12.53;8.13;;;;;;;;;;5028604;28;20208;-73
2022/04/26 19:06:26;;;;;;;12.57;8.17;;;;;;;;;;5027794;28;20215;-72
2022/04/26 19:08:54;;;;;;;9.57;7.83;;;;;;;;;;5027091;28;20621;-72
2022/04/26 19:14:09;;;;;;;10.47;7.33;;;;;;;;;;5026934;28;20220;-73
2022/04/26 19:16:39;;;;;;;10.47;7.27;;;;;;;;;;5023106;28;20655;-72
2022/04/26 19:19:08;;;;;;;8.57;7.10;;;;;;;;;;5019945;28;20219;-74